Terminal Aerodrome Forecast
Issued by NWS Wakefield, VA

Home | Current Version | Previous Version | Text Only | Print | Product List | Glossary On
Versions: 1 2 3 4 5 6 7 8 9 10 11 12 13
000
FTUS41 KAKQ 012300
TAFSBY
TAF
KSBY 012339Z 0200/0224 10005KT 5SM -RA BR SCT040 OVC100
     FM020500 03004KT 4SM -RA BR OVC009
     FM021300 10006KT 5SM -RA BR OVC020=

USA.gov is the U.S. government's official web portal to all federal, state and local government web resources and services.